Time;durP1;ratioP1;P1;durP2;ratioP2;P2;SDS_P1;SDS_P2;PMS_P1;PMS_P2;Temp;Humidity;BMP_temperature;BMP_pressure;BME280_temperature;BME280_humidity;BME280_pressure;Samples;Min_cycle;Max_cycle;Signal;HPM_P1;HPM_P2
2022/06/20 00:01:44;;;;;;;7.05;3.02;;;27.50;98.50;;;;;;1866917;76;21167;-90
2022/06/20 00:04:17;;;;;;;8.65;3.12;;;27.50;98.30;;;;;;1875951;75;21209;-88
2022/06/20 00:06:49;;;;;;;9.45;3.05;;;27.50;98.10;;;;;;1915744;74;21107;-89
2022/06/20 00:09:21;;;;;;;11.28;3.58;;;27.50;98.00;;;;;;1907144;74;21147;-90
2022/06/20 00:11:52;;;;;;;6.20;2.87;;;27.50;98.30;;;;;;1898274;74;21111;-89
2022/06/20 00:14:23;;;;;;;7.90;2.80;;;27.50;98.10;;;;;;1894559;74;21084;-89
2022/06/20 00:16:54;;;;;;;3.92;2.52;;;27.50;98.00;;;;;;1902994;74;21665;-88
2022/06/20 00:19:30;;;;;;;4.97;2.35;;;27.50;98.00;;;;;;1896533;74;21230;-89
2022/06/20 00:22:01;;;;;;;8.35;2.50;;;27.50;98.00;;;;;;1891265;74;21120;-89
2022/06/20 00:24:32;;;;;;;5.00;2.70;;;27.50;97.90;;;;;;1895759;74;21131;-89
2022/06/20 00:27:08;;;;;;;9.93;2.87;;;27.60;97.70;;;;;;1865080;74;21072;-90
2022/06/20 00:35:26;;;;;;;4.08;2.50;;;27.60;97.50;;;;;;1853554;74;21112;-89
2022/06/20 00:37:58;;;;;;;8.58;4.95;;;27.60;97.50;;;;;;1889843;76;21217;-91
2022/06/20 00:40:33;;;;;;;5.35;3.00;;;27.60;97.60;;;;;;1902986;75;21122;-89
2022/06/20 00:43:07;;;;;;;3.47;2.50;;;27.60;97.60;;;;;;1878719;75;21084;-88
2022/06/20 00:45:40;;;;;;;6.75;2.60;;;27.70;97.60;;;;;;1902761;75;21083;-89
2022/06/20 00:48:14;;;;;;;4.47;2.52;;;27.70;97.30;;;;;;1888605;75;21070;-90
2022/06/20 00:50:58;;;;;;;8.50;3.12;;;27.70;97.30;;;;;;1891195;75;21183;-91
2022/06/20 00:53:34;;;;;;;6.28;2.70;;;27.70;97.30;;;;;;1844806;77;21081;-90
2022/06/20 00:56:08;;;;;;;7.15;4.05;;;27.80;97.40;;;;;;1832283;78;21109;-90
2022/06/20 00:58:44;;;;;;;7.22;4.00;;;27.90;97.50;;;;;;1826909;78;21190;-91
2022/06/20 01:01:17;;;;;;;7.05;3.12;;;27.90;97.30;;;;;;1834251;77;21071;-90
2022/06/20 01:03:51;;;;;;;6.25;2.87;;;28.00;97.10;;;;;;1837654;77;21185;-88
2022/06/20 01:06:28;;;;;;;5.45;2.77;;;28.00;97.10;;;;;;1838354;77;21152;-91
2022/06/20 01:09:02;;;;;;;5.83;2.80;;;28.10;96.90;;;;;;1821017;77;21175;-90
2022/06/20 01:11:43;;;;;;;7.08;2.80;;;28.10;96.80;;;;;;1809849;77;21097;-90
2022/06/20 01:14:22;;;;;;;6.45;2.85;;;28.10;96.60;;;;;;1830495;77;21651;-90
2022/06/20 01:17:02;;;;;;;7.17;3.17;;;28.20;96.60;;;;;;1820838;78;21673;-90
2022/06/20 01:19:36;;;;;;;5.33;2.75;;;28.20;96.60;;;;;;1832690;77;21162;-91
2022/06/20 01:22:12;;;;;;;4.17;2.65;;;28.30;96.60;;;;;;1830235;78;21144;-89
2022/06/20 01:25:00;;;;;;;4.42;1.90;;;28.40;96.30;;;;;;1834623;78;21136;-91
2022/06/20 01:27:44;;;;;;;5.90;2.17;;;28.40;95.60;;;;;;1835571;77;21136;-90
2022/06/20 01:30:16;;;;;;;5.45;2.20;;;28.50;95.50;;;;;;1823201;77;21085;-74
2022/06/20 01:32:48;;;;;;;7.62;2.85;;;28.50;95.70;;;;;;1831116;77;21164;-78
2022/06/20 01:37:53;;;;;;;5.28;2.75;;;28.70;95.60;;;;;;1900325;73;21268;-76
2022/06/20 01:40:24;;;;;;;5.45;2.40;;;28.80;95.40;;;;;;1921883;73;21622;-75
2022/06/20 01:42:56;;;;;;;5.85;1.95;;;28.90;95.50;;;;;;1920506;73;21612;-76
2022/06/20 01:48:02;;;;;;;6.17;2.60;;;29.10;94.70;;;;;;1904122;73;21184;-76
2022/06/20 01:50:34;;;;;;;5.50;2.22;;;29.20;94.50;;;;;;1868110;75;21137;-77
2022/06/20 01:53:08;;;;;;;3.30;2.20;;;29.40;94.60;;;;;;1907003;73;21140;-75
2022/06/20 01:55:40;;;;;;;5.15;2.17;;;29.40;94.50;;;;;;1909513;73;21677;-77
2022/06/20 01:58:13;;;;;;;4.40;2.50;;;29.50;94.30;;;;;;1903905;73;21174;-77
2022/06/20 02:00:44;;;;;;;4.25;1.85;;;29.70;94.10;;;;;;1901115;74;21277;-76
2022/06/20 02:03:17;;;;;;;5.42;2.30;;;29.80;93.80;;;;;;1904765;73;21737;-77
2022/06/20 02:05:51;;;;;;;4.25;1.90;;;29.90;93.80;;;;;;1904769;73;21108;-77
2022/06/20 02:08:24;;;;;;;4.20;2.40;;;29.90;93.20;;;;;;1895983;75;21205;-76
2022/06/20 02:11:00;;;;;;;4.20;1.98;;;30.00;93.20;;;;;;1917717;73;21081;-75
2022/06/20 02:13:32;;;;;;;7.00;2.10;;;30.10;93.30;;;;;;1895238;73;21120;-75
2022/06/20 02:16:05;;;;;;;5.22;2.37;;;30.20;93.40;;;;;;1830353;76;21220;-76
2022/06/20 02:18:39;;;;;;;3.92;1.90;;;30.30;93.00;;;;;;1908602;73;21121;-76
2022/06/20 02:21:12;;;;;;;3.75;1.75;;;30.30;92.20;;;;;;1899029;74;21136;-76
2022/06/20 02:23:45;;;;;;;5.67;1.72;;;30.40;92.50;;;;;;1912255;73;21175;-76
2022/06/20 02:26:18;;;;;;;3.90;1.80;;;30.50;92.80;;;;;;1905689;74;21099;-77
2022/06/20 02:28:51;;;;;;;4.37;1.90;;;30.50;92.30;;;;;;1827523;76;21217;-77
2022/06/20 02:31:22;;;;;;;3.98;1.77;;;30.60;92.20;;;;;;1907793;74;21721;-76
2022/06/20 02:33:54;;;;;;;5.35;3.40;;;30.70;92.50;;;;;;1917445;73;21141;-77
2022/06/20 02:36:25;;;;;;;4.28;1.90;;;30.70;92.20;;;;;;1926373;73;21139;-77
2022/06/20 02:38:56;;;;;;;3.17;1.77;;;30.80;92.30;;;;;;1921048;73;21650;-77
2022/06/20 02:41:29;;;;;;;3.50;1.52;;;30.90;92.40;;;;;;1920645;73;21576;-77
2022/06/20 02:44:02;;;;;;;4.65;1.80;;;30.90;91.30;;;;;;1920029;73;21750;-79
2022/06/20 02:46:34;;;;;;;6.83;2.30;;;31.00;91.40;;;;;;1920712;73;21622;-77
2022/06/20 02:49:09;;;;;;;5.17;1.90;;;31.10;91.60;;;;;;1920415;74;21611;-76
2022/06/20 02:51:40;;;;;;;6.65;2.10;;;31.10;91.00;;;;;;1924213;73;21669;-77
2022/06/20 02:54:13;;;;;;;5.00;2.55;;;31.20;90.80;;;;;;1918350;73;21154;-77
2022/06/20 02:56:54;;;;;;;9.08;2.35;;;31.20;90.70;;;;;;1918310;74;21256;-76
2022/06/20 02:59:21;;;;;;;3.62;2.47;;;31.20;91.30;;;;;;1917617;74;21115;-77
2022/06/20 03:01:55;;;;;;;3.33;1.90;;;31.30;91.30;;;;;;1928441;73;21103;-76
2022/06/20 03:04:27;;;;;;;5.53;2.10;;;31.40;90.70;;;;;;1910127;74;21679;-77
2022/06/20 03:07:01;;;;;;;3.55;2.05;;;31.50;90.40;;;;;;1922988;74;21155;-77
2022/06/20 03:09:34;;;;;;;4.67;1.95;;;31.50;90.60;;;;;;1935055;73;21257;-76
2022/06/20 03:12:07;;;;;;;4.17;1.85;;;31.60;90.70;;;;;;1924192;73;21124;-75
2022/06/20 03:14:40;;;;;;;4.17;2.15;;;31.70;89.30;;;;;;1914169;73;21226;-75
2022/06/20 03:17:13;;;;;;;3.70;2.00;;;31.80;89.00;;;;;;1925699;73;21178;-77
2022/06/20 03:19:46;;;;;;;3.92;1.92;;;31.80;88.20;;;;;;1925478;73;21152;-75
2022/06/20 03:22:20;;;;;;;4.35;2.00;;;31.90;87.70;;;;;;1926888;73;21134;-76
2022/06/20 03:24:53;;;;;;;6.22;2.10;;;31.90;87.20;;;;;;1911739;74;21595;-76
2022/06/20 03:27:26;;;;;;;7.60;2.30;;;32.00;87.80;;;;;;1918765;73;21108;-77
2022/06/20 03:30:00;;;;;;;7.12;2.00;;;32.00;87.90;;;;;;1919469;73;21098;-78
2022/06/20 03:32:31;;;;;;;6.55;2.25;;;32.10;87.80;;;;;;1912787;73;21191;-78
2022/06/20 03:35:02;;;;;;;5.67;2.20;;;32.20;88.30;;;;;;1927898;73;21203;-77
2022/06/20 03:37:33;;;;;;;4.10;1.70;;;32.30;87.50;;;;;;1896277;74;21194;-77
2022/06/20 03:40:04;;;;;;;4.58;2.05;;;32.40;83.60;;;;;;1931779;73;21119;-75
2022/06/20 03:42:35;;;;;;;3.65;2.00;;;32.40;85.10;;;;;;1911941;74;21121;-78
2022/06/20 03:45:08;;;;;;;3.10;1.70;;;32.50;84.80;;;;;;1904883;73;21096;-76
2022/06/20 03:47:42;;;;;;;3.47;1.95;;;32.60;83.40;;;;;;1928783;73;21100;-76
2022/06/20 03:50:15;;;;;;;5.22;2.10;;;32.60;83.10;;;;;;1931504;73;21352;-76
2022/06/20 03:52:48;;;;;;;3.00;1.90;;;32.70;84.30;;;;;;1920451;73;21139;-75
2022/06/20 03:55:22;;;;;;;4.67;2.40;;;32.80;84.60;;;;;;1912035;74;21172;-76
2022/06/20 03:57:56;;;;;;;6.08;1.72;;;32.90;83.40;;;;;;1900139;74;21572;-77
2022/06/20 04:00:30;;;;;;;5.10;2.25;;;33.00;83.00;;;;;;1890845;74;21171;-76
2022/06/20 04:03:03;;;;;;;4.83;2.40;;;33.00;84.00;;;;;;1916685;73;21122;-77
2022/06/20 04:05:38;;;;;;;3.60;2.17;;;33.00;84.50;;;;;;1901149;74;21234;-76
2022/06/20 04:08:14;;;;;;;6.85;2.70;;;33.10;84.10;;;;;;1904466;74;21711;-76
2022/06/20 04:13:22;;;;;;;5.90;2.58;;;33.30;82.90;;;;;;1908041;74;21651;-75
2022/06/20 04:15:55;;;;;;;4.10;2.17;;;33.40;82.20;;;;;;1904326;74;21771;-74
2022/06/20 04:18:29;;;;;;;5.28;2.50;;;33.40;83.40;;;;;;1903229;73;21992;-74
2022/06/20 04:21:02;;;;;;;4.10;2.00;;;33.50;82.40;;;;;;1917534;73;21164;-75
2022/06/20 04:23:35;;;;;;;3.87;2.10;;;33.50;81.60;;;;;;1904933;73;21122;-76
2022/06/20 04:26:09;;;;;;;3.77;2.10;;;33.40;81.90;;;;;;1922698;73;21103;-76
2022/06/20 04:28:42;;;;;;;3.67;2.22;;;33.50;81.70;;;;;;1909923;74;21580;-75
2022/06/20 04:31:16;;;;;;;4.30;2.20;;;33.50;82.10;;;;;;1911113;74;21128;-76
2022/06/20 04:33:49;;;;;;;3.22;2.30;;;33.50;83.00;;;;;;1923304;73;21314;-76
2022/06/20 04:36:22;;;;;;;5.03;2.30;;;33.50;82.50;;;;;;1896607;75;21152;-76
2022/06/20 04:38:55;;;;;;;3.62;2.25;;;33.50;82.70;;;;;;1858043;75;21197;-75
2022/06/20 04:41:29;;;;;;;3.60;2.25;;;33.30;81.60;;;;;;1853251;75;21250;-75
2022/06/20 04:44:02;;;;;;;6.90;2.17;;;33.10;80.90;;;;;;1852471;75;21151;-73
2022/06/20 04:46:35;;;;;;;4.47;2.15;;;33.00;81.40;;;;;;1862782;75;21229;-73
2022/06/20 04:49:07;;;;;;;5.78;2.15;;;33.00;82.20;;;;;;1875810;75;22587;-72
2022/06/20 04:51:40;;;;;;;3.83;2.08;;;33.20;80.70;;;;;;1868725;75;21597;-73
2022/06/20 04:54:14;;;;;;;3.85;1.80;;;33.30;81.10;;;;;;1879413;75;21625;-73
2022/06/20 04:56:46;;;;;;;4.62;2.62;;;33.50;80.40;;;;;;1871688;75;21120;-74
2022/06/20 04:59:20;;;;;;;5.65;1.87;;;33.60;79.80;;;;;;1858652;75;22373;-75
2022/06/20 05:01:51;;;;;;;3.47;1.80;;;33.70;79.20;;;;;;1859550;75;21111;-73
2022/06/20 05:04:25;;;;;;;3.87;2.15;;;33.80;78.40;;;;;;1820503;78;21262;-76
2022/06/20 05:06:58;;;;;;;5.10;2.02;;;33.80;79.90;;;;;;1785071;78;21143;-73
2022/06/20 05:09:32;;;;;;;4.47;2.15;;;33.90;78.30;;;;;;1867941;75;21774;-74
2022/06/20 05:12:05;;;;;;;5.78;2.40;;;33.90;76.60;;;;;;1876795;75;21112;-74
2022/06/20 05:14:39;;;;;;;2.72;1.85;;;33.90;75.70;;;;;;1874686;75;21559;-74
2022/06/20 05:17:12;;;;;;;6.85;2.30;;;33.90;75.60;;;;;;1889365;75;21143;-73
2022/06/20 05:19:45;;;;;;;4.20;2.35;;;33.90;77.80;;;;;;1838992;75;21092;-75
2022/06/20 05:22:19;;;;;;;4.62;2.17;;;34.00;78.00;;;;;;1832987;77;21620;-73
2022/06/20 05:24:54;;;;;;;4.45;1.72;;;34.20;76.40;;;;;;1802100;78;21159;-75
2022/06/20 05:27:27;;;;;;;2.72;1.70;;;34.30;76.70;;;;;;1787494;79;21237;-78
2022/06/20 05:30:00;;;;;;;3.10;1.65;;;34.20;76.50;;;;;;1832923;77;21202;-77
2022/06/20 05:32:34;;;;;;;4.12;1.98;;;34.10;77.20;;;;;;1839678;77;21623;-75
2022/06/20 05:35:07;;;;;;;4.12;1.80;;;34.10;77.20;;;;;;1784441;78;21154;-76
2022/06/20 05:37:40;;;;;;;5.28;1.98;;;34.10;76.70;;;;;;1810398;77;21242;-74
2022/06/20 05:40:13;;;;;;;4.80;1.65;;;34.20;77.30;;;;;;1920424;73;21182;-73
2022/06/20 05:42:44;;;;;;;2.40;1.42;;;34.20;77.00;;;;;;1935157;73;21106;-74
2022/06/20 05:45:18;;;;;;;3.77;1.70;;;34.30;75.50;;;;;;1917156;73;21182;-76
2022/06/20 05:47:51;;;;;;;3.50;1.87;;;34.30;74.60;;;;;;1874349;75;21082;-75
2022/06/20 05:50:25;;;;;;;4.20;1.50;;;34.40;74.70;;;;;;1925428;73;21105;-75
2022/06/20 05:52:57;;;;;;;6.15;1.45;;;34.40;75.30;;;;;;1918933;73;21625;-76
2022/06/20 05:55:30;;;;;;;2.10;1.50;;;34.50;74.80;;;;;;1917772;73;21619;-76
2022/06/20 05:58:03;;;;;;;5.70;2.05;;;34.60;73.20;;;;;;1923687;73;21135;-75
2022/06/20 06:00:35;;;;;;;5.70;1.40;;;34.60;74.30;;;;;;1914398;74;21119;-75
2022/06/20 06:03:09;;;;;;;3.50;1.52;;;34.60;72.80;;;;;;1916666;73;21166;-75
2022/06/20 06:05:43;;;;;;;2.75;1.40;;;34.60;74.60;;;;;;1921958;73;21148;-75
2022/06/20 06:08:16;;;;;;;2.20;1.30;;;34.50;72.80;;;;;;1915884;73;21143;-75
2022/06/20 06:10:51;;;;;;;3.52;1.35;;;34.50;75.00;;;;;;1908289;75;21169;-74
2022/06/20 06:13:24;;;;;;;2.55;1.30;;;34.50;74.40;;;;;;1904625;73;21120;-74
2022/06/20 06:18:34;;;;;;;3.10;1.32;;;34.40;72.20;;;;;;1912168;73;21155;-75
2022/06/20 06:21:05;;;;;;;3.15;1.30;;;34.40;70.80;;;;;;1912234;73;21115;-74
2022/06/20 06:23:36;;;;;;;2.00;1.00;;;34.30;71.30;;;;;;1914322;73;21159;-74
2022/06/20 06:26:08;;;;;;;2.17;0.90;;;34.20;70.00;;;;;;1921348;73;21413;-74
2022/06/20 06:28:41;;;;;;;4.55;1.50;;;34.20;69.20;;;;;;1908725;74;21615;-74
2022/06/20 06:31:14;;;;;;;2.52;1.35;;;34.20;70.60;;;;;;1912969;73;21154;-74
2022/06/20 06:33:49;;;;;;;3.17;1.02;;;34.20;70.40;;;;;;1916182;73;21242;-74
2022/06/20 06:36:23;;;;;;;2.50;1.10;;;34.20;72.20;;;;;;1913077;73;21123;-75
2022/06/20 06:38:57;;;;;;;2.90;1.52;;;34.20;73.40;;;;;;1908090;74;21627;-74
2022/06/20 06:41:30;;;;;;;4.40;1.95;;;34.20;73.70;;;;;;1897525;74;21144;-74
2022/06/20 06:44:04;;;;;;;4.00;2.12;;;34.20;74.60;;;;;;1900752;75;21611;-76
2022/06/20 06:46:38;;;;;;;3.83;1.75;;;34.30;74.90;;;;;;1922629;74;21187;-75
2022/06/20 06:49:11;;;;;;;5.55;1.87;;;34.30;72.50;;;;;;1919857;74;21181;-74
2022/06/20 06:51:46;;;;;;;4.08;2.27;;;34.30;72.50;;;;;;1898728;74;21582;-75
2022/06/20 06:54:19;;;;;;;4.97;2.40;;;34.50;73.70;;;;;;1910334;74;21652;-75
2022/06/20 06:56:53;;;;;;;4.45;2.30;;;34.50;71.60;;;;;;1920913;74;21074;-76
2022/06/20 06:59:27;;;;;;;3.22;1.90;;;34.60;71.30;;;;;;1915909;74;21588;-75
2022/06/20 07:02:02;;;;;;;4.00;2.08;;;34.60;71.10;;;;;;1902061;74;21649;-75
2022/06/20 07:04:35;;;;;;;5.15;1.82;;;34.60;69.30;;;;;;1916911;74;21258;-74
2022/06/20 07:07:09;;;;;;;6.37;2.77;;;34.50;72.30;;;;;;1911364;74;21134;-76
2022/06/20 07:09:43;;;;;;;3.72;1.70;;;34.60;72.40;;;;;;1904090;75;21084;-76
2022/06/20 07:12:16;;;;;;;2.85;1.22;;;34.60;71.60;;;;;;1910713;75;21583;-76
2022/06/20 07:14:50;;;;;;;2.72;1.20;;;34.50;70.90;;;;;;1901731;73;21151;-75
2022/06/20 07:17:24;;;;;;;3.90;1.50;;;34.50;70.80;;;;;;1921279;73;21132;-76
2022/06/20 07:19:58;;;;;;;4.72;1.98;;;34.40;71.20;;;;;;1903001;75;21152;-76
2022/06/20 07:22:31;;;;;;;3.67;1.98;;;34.40;70.10;;;;;;1871094;76;21092;-76
2022/06/20 07:25:03;;;;;;;3.83;1.87;;;34.50;70.20;;;;;;1892071;74;21119;-75
2022/06/20 07:27:37;;;;;;;5.08;1.82;;;34.50;69.30;;;;;;1874398;75;21123;-75
2022/06/20 07:30:10;;;;;;;4.72;2.25;;;34.50;69.30;;;;;;1891847;75;21232;-75
2022/06/20 07:32:43;;;;;;;3.30;1.65;;;34.50;69.90;;;;;;1874032;75;21080;-75
2022/06/20 07:35:17;;;;;;;3.20;1.50;;;34.60;71.30;;;;;;1857690;75;21124;-75
2022/06/20 07:37:50;;;;;;;4.25;1.55;;;34.60;68.60;;;;;;1859472;75;21551;-75
2022/06/20 07:40:23;;;;;;;4.25;1.57;;;34.70;69.70;;;;;;1861584;76;21626;-73
2022/06/20 07:42:57;;;;;;;3.62;1.70;;;34.80;69.10;;;;;;1854856;76;21143;-75
2022/06/20 07:45:30;;;;;;;3.50;1.60;;;34.80;69.50;;;;;;1862377;75;21647;-74
2022/06/20 07:48:04;;;;;;;4.47;1.60;;;34.80;69.20;;;;;;1849231;76;21199;-75
2022/06/20 07:50:38;;;;;;;2.15;1.50;;;34.80;70.60;;;;;;1847650;76;21623;-75
2022/06/20 07:53:12;;;;;;;3.05;1.60;;;34.90;67.80;;;;;;1854503;76;21130;-75
2022/06/20 07:55:45;;;;;;;2.58;1.30;;;34.80;70.00;;;;;;1845982;76;21151;-76
2022/06/20 07:58:19;;;;;;;3.05;1.22;;;34.80;69.80;;;;;;1849310;76;21099;-75
2022/06/20 08:00:53;;;;;;;4.28;1.65;;;34.80;69.60;;;;;;1846078;76;21140;-74
2022/06/20 08:03:26;;;;;;;3.33;1.75;;;34.80;69.10;;;;;;1858868;76;21524;-75
2022/06/20 08:06:00;;;;;;;2.20;1.30;;;34.80;67.50;;;;;;1848977;76;21615;-76
2022/06/20 08:08:33;;;;;;;4.60;1.40;;;34.80;68.30;;;;;;1853686;76;21437;-76
2022/06/20 08:11:08;;;;;;;3.72;1.50;;;34.80;67.90;;;;;;1843001;76;21883;-75
2022/06/20 08:13:41;;;;;;;2.92;1.12;;;34.80;67.60;;;;;;1859415;76;21203;-77
2022/06/20 08:16:14;;;;;;;3.83;1.50;;;34.80;67.20;;;;;;1861247;75;21598;-76
2022/06/20 08:18:45;;;;;;;1.50;0.95;;;34.80;68.10;;;;;;1843564;76;21104;-76
2022/06/20 08:21:19;;;;;;;2.22;1.20;;;34.80;67.20;;;;;;1861477;76;21658;-76
2022/06/20 08:23:52;;;;;;;3.42;1.40;;;34.70;66.70;;;;;;1846362;76;21167;-76
2022/06/20 08:26:26;;;;;;;2.47;1.00;;;34.70;68.10;;;;;;1864802;76;21198;-75
2022/06/20 08:28:59;;;;;;;2.87;1.40;;;34.70;68.60;;;;;;1858534;76;21537;-75
2022/06/20 08:31:33;;;;;;;2.45;1.30;;;34.70;67.90;;;;;;1807579;77;21154;-76
2022/06/20 08:34:09;;;;;;;4.50;1.60;;;34.60;67.10;;;;;;1808329;77;21296;-74
2022/06/20 08:36:41;;;;;;;;;;;34.60;68.30;;;;;;1863342;75;21641;-75
2022/06/20 08:39:17;;;;;;;3.95;1.70;;;34.60;68.10;;;;;;1851167;76;20222;-75
2022/06/20 08:41:53;;;;;;;2.67;1.55;;;34.50;67.70;;;;;;1879837;75;21603;-76
2022/06/20 08:44:25;;;;;;;3.15;1.40;;;34.50;67.70;;;;;;1864625;74;21249;-74
2022/06/20 08:46:58;;;;;;;3.52;1.40;;;34.50;67.40;;;;;;1869930;75;21128;-73
2022/06/20 08:49:31;;;;;;;7.80;2.20;;;34.40;67.60;;;;;;1869404;75;21128;-76
2022/06/20 08:52:08;;;;;;;3.62;1.47;;;34.40;68.40;;;;;;1866956;75;21088;-74
2022/06/20 08:54:39;;;;;;;3.40;1.35;;;34.40;68.00;;;;;;1868640;76;21115;-77
2022/06/20 08:57:14;;;;;;;4.37;1.55;;;34.40;68.10;;;;;;1869750;75;21183;-77
2022/06/20 08:59:47;;;;;;;3.55;1.57;;;34.50;67.30;;;;;;1864033;75;21112;-73
2022/06/20 09:02:22;;;;;;;5.55;1.60;;;34.50;68.10;;;;;;1868928;75;21119;-74
2022/06/20 09:04:56;;;;;;;5.87;1.62;;;34.50;67.90;;;;;;1863841;75;21174;-75
2022/06/20 09:07:29;;;;;;;5.12;1.77;;;34.50;67.70;;;;;;1837025;76;21602;-76
2022/06/20 09:10:03;;;;;;;3.10;1.60;;;34.50;67.70;;;;;;1869645;75;21230;-75
2022/06/20 09:12:37;;;;;;;5.95;2.00;;;34.50;67.90;;;;;;1868145;75;21512;-76
2022/06/20 09:15:10;;;;;;;2.87;1.55;;;34.50;67.20;;;;;;1868919;75;21152;-74
2022/06/20 09:17:43;;;;;;;4.10;1.40;;;34.40;66.90;;;;;;1867393;75;21143;-74
2022/06/20 09:20:35;;;;;;;3.30;1.40;;;34.40;66.60;;;;;;1866552;75;21532;-75
2022/06/20 09:23:08;;;;;;;3.40;1.45;;;34.40;66.20;;;;;;1862461;75;21193;-76
2022/06/20 09:25:42;;;;;;;4.42;1.52;;;34.30;67.10;;;;;;1859772;76;21618;-76
2022/06/20 09:28:18;;;;;;;4.67;1.72;;;34.20;68.00;;;;;;1861463;75;21189;-76
2022/06/20 09:30:52;;;;;;;4.00;1.40;;;34.20;67.70;;;;;;1868245;76;21198;-75
2022/06/20 09:33:25;;;;;;;5.83;1.52;;;34.20;65.80;;;;;;1858644;75;21572;-75
2022/06/20 09:36:00;;;;;;;5.80;2.02;;;34.30;66.50;;;;;;1832783;76;21605;-74
2022/06/20 09:38:33;;;;;;;4.80;2.00;;;34.30;66.40;;;;;;1861597;76;21145;-75
2022/06/20 09:41:07;;;;;;;3.10;1.30;;;34.30;66.90;;;;;;1791234;78;21809;-75
2022/06/20 09:43:40;;;;;;;3.50;1.47;;;34.30;66.60;;;;;;1865850;75;21601;-74
2022/06/20 09:46:14;;;;;;;3.22;1.62;;;34.30;66.30;;;;;;1873650;75;21663;-74
2022/06/20 09:48:47;;;;;;;4.55;1.50;;;34.40;65.90;;;;;;1867334;75;21535;-75
2022/06/20 09:51:20;;;;;;;2.83;1.42;;;34.30;65.10;;;;;;1866349;76;21090;-76
2022/06/20 09:53:55;;;;;;;4.50;1.65;;;34.30;64.70;;;;;;1857096;75;21128;-76
2022/06/20 09:56:28;;;;;;;3.72;1.40;;;34.40;65.20;;;;;;1862556;75;21174;-76
2022/06/20 09:59:05;;;;;;;4.78;1.32;;;34.30;65.40;;;;;;1862880;76;21249;-75
2022/06/20 10:01:37;;;;;;;4.60;1.70;;;34.40;65.80;;;;;;1864760;75;21957;-76
2022/06/20 10:04:10;;;;;;;4.22;2.02;;;34.40;64.40;;;;;;1866444;75;21641;-77
2022/06/20 10:06:44;;;;;;;2.65;1.32;;;34.30;65.10;;;;;;1860104;75;21615;-77
2022/06/20 10:09:18;;;;;;;3.75;1.90;;;34.30;64.80;;;;;;1854407;75;21127;-75
2022/06/20 10:11:51;;;;;;;3.08;1.90;;;34.40;69.10;;;;;;1860592;76;21135;-75
2022/06/20 10:14:25;;;;;;;6.03;1.80;;;34.30;69.70;;;;;;1867249;75;21210;-76
2022/06/20 10:16:59;;;;;;;9.83;2.00;;;34.30;70.90;;;;;;1862697;76;21329;-78
2022/06/20 10:19:33;;;;;;;5.05;1.90;;;34.20;71.10;;;;;;1867950;75;21099;-75
2022/06/20 10:22:07;;;;;;;3.72;1.90;;;34.20;71.20;;;;;;1857713;75;21573;-76
2022/06/20 10:24:41;;;;;;;3.72;2.00;;;34.20;71.70;;;;;;1803947;78;21481;-75
2022/06/20 10:27:14;;;;;;;3.37;1.80;;;34.20;72.10;;;;;;1803717;76;21163;-84
2022/06/20 10:29:47;;;;;;;5.62;2.55;;;34.10;72.30;;;;;;1808375;76;21197;-84
2022/06/20 10:32:21;;;;;;;5.20;2.20;;;34.10;72.80;;;;;;1791509;77;21115;-84
2022/06/20 10:34:55;;;;;;;3.85;1.87;;;34.10;73.20;;;;;;1787760;77;21095;-83
2022/06/20 10:37:33;;;;;;;5.03;2.00;;;34.00;73.50;;;;;;1822780;76;21083;-85
2022/06/20 10:40:07;;;;;;;5.10;2.50;;;33.90;73.60;;;;;;1797857;78;21147;-78
2022/06/20 10:42:43;;;;;;;5.55;1.92;;;33.90;74.40;;;;;;1811365;78;21240;-83
2022/06/20 10:45:17;;;;;;;4.45;2.00;;;33.90;74.00;;;;;;1767859;80;21709;-83
2022/06/20 10:47:50;;;;;;;4.47;2.00;;;33.80;73.90;;;;;;1763885;80;21174;-85
2022/06/20 10:50:23;;;;;;;3.35;1.85;;;33.80;74.30;;;;;;1787409;79;21127;-84
2022/06/20 10:52:58;;;;;;;2.75;2.00;;;33.80;74.60;;;;;;1784320;78;21218;-82
2022/06/20 10:55:31;;;;;;;6.72;2.35;;;33.80;75.00;;;;;;1787857;78;21134;-83
2022/06/20 10:58:04;;;;;;;4.00;2.05;;;33.70;74.90;;;;;;1801379;79;21132;-85
2022/06/20 11:00:38;;;;;;;5.05;1.80;;;33.70;75.00;;;;;;1804223;77;21169;-83
2022/06/20 11:03:11;;;;;;;4.95;2.12;;;33.70;74.90;;;;;;1802711;79;21767;-84
2022/06/20 11:05:48;;;;;;;5.37;2.30;;;33.60;75.30;;;;;;1792812;78;21642;-84
2022/06/20 11:08:24;;;;;;;4.90;2.37;;;33.60;75.90;;;;;;1783030;78;21238;-85
2022/06/20 11:10:58;;;;;;;5.50;2.33;;;33.50;76.10;;;;;;1802747;79;21159;-83
2022/06/20 11:13:30;;;;;;;6.25;2.58;;;33.50;76.50;;;;;;1811248;78;21209;-83
2022/06/20 11:16:04;;;;;;;5.22;1.95;;;33.50;76.30;;;;;;1821319;77;21130;-83
2022/06/20 11:18:37;;;;;;;;;;;33.50;76.70;;;;;;1785102;79;21141;-83
2022/06/20 11:21:11;;;;;;;5.10;2.25;;;33.50;76.70;;;;;;1785170;79;20236;-82
2022/06/20 11:23:44;;;;;;;6.72;3.00;;;33.50;77.10;;;;;;1814803;77;21143;-83
2022/06/20 11:26:17;;;;;;;5.08;2.70;;;33.40;77.20;;;;;;1818418;78;21186;-84
2022/06/20 11:28:51;;;;;;;6.95;3.87;;;33.40;77.30;;;;;;1833130;77;21156;-84
2022/06/20 11:31:27;;;;;;;8.88;3.85;;;33.40;77.50;;;;;;1800578;79;21668;-83
2022/06/20 11:34:01;;;;;;;7.92;3.62;;;33.40;77.60;;;;;;1824082;77;21127;-82
2022/06/20 11:36:34;;;;;;;4.37;2.60;;;33.30;78.20;;;;;;1850412;76;21092;-83
2022/06/20 11:39:08;;;;;;;7.37;2.40;;;33.30;78.30;;;;;;1881470;74;21131;-84
2022/06/20 11:41:41;;;;;;;10.60;3.30;;;33.20;78.40;;;;;;1880376;74;21994;-85
2022/06/20 11:44:16;;;;;;;8.80;3.02;;;33.30;78.90;;;;;;1880088;76;21150;-83
2022/06/20 11:46:49;;;;;;;5.90;2.90;;;33.20;79.20;;;;;;1881173;74;22035;-84
2022/06/20 11:49:23;;;;;;;9.58;3.60;;;33.20;79.60;;;;;;1878668;74;21721;-83
2022/06/20 11:52:02;;;;;;;5.85;3.62;;;33.20;79.70;;;;;;1876692;76;21064;-83
2022/06/20 11:54:36;;;;;;;7.87;3.75;;;33.10;79.90;;;;;;1882809;74;21198;-83
2022/06/20 11:57:19;;;;;;;7.40;3.70;;;33.10;80.40;;;;;;1882043;74;21141;-84
2022/06/20 11:59:53;;;;;;;9.05;4.15;;;33.10;80.30;;;;;;1881901;74;21141;-83
2022/06/20 12:02:26;;;;;;;12.18;3.65;;;33.10;80.70;;;;;;1873764;74;21094;-83
2022/06/20 12:05:00;;;;;;;8.48;3.92;;;33.00;80.80;;;;;;1856453;76;21123;-84
2022/06/20 12:07:37;;;;;;;16.07;4.40;;;33.00;81.20;;;;;;1883944;74;21256;-84
2022/06/20 12:10:10;;;;;;;7.42;4.00;;;33.00;81.30;;;;;;1880919;74;21847;-85
2022/06/20 12:12:43;;;;;;;7.80;3.72;;;32.90;81.20;;;;;;1878280;75;21506;-83
2022/06/20 12:15:21;;;;;;;7.75;3.90;;;32.90;81.30;;;;;;1877809;76;21502;-83
2022/06/20 12:17:52;;;;;;;8.08;4.05;;;32.90;81.30;;;;;;1884306;74;21147;-83
2022/06/20 12:25:34;;;;;;;8.00;3.98;;;32.80;81.10;;;;;;1886722;74;21164;-83
2022/06/20 12:28:08;;;;;;;9.18;3.87;;;32.80;81.10;;;;;;1890225;74;21758;-83
2022/06/20 12:30:39;;;;;;;5.75;3.47;;;32.80;80.40;;;;;;1887218;74;21115;-84
2022/06/20 12:33:12;;;;;;;6.40;3.90;;;32.80;80.40;;;;;;1886169;75;21138;-84
2022/06/20 12:35:45;;;;;;;5.87;3.70;;;32.70;80.10;;;;;;1833276;77;21903;-85
2022/06/20 12:38:20;;;;;;;6.08;3.30;;;32.80;79.70;;;;;;1840001;77;21196;-84
2022/06/20 12:40:53;;;;;;;6.10;3.95;;;32.80;78.90;;;;;;1823895;77;21158;-84
2022/06/20 12:43:27;;;;;;;8.60;3.83;;;32.80;78.50;;;;;;1818328;77;21211;-83
2022/06/20 12:46:10;;;;;;;6.92;4.17;;;32.80;78.30;;;;;;1816797;77;21103;-82
2022/06/20 12:48:39;;;;;;;6.83;4.30;;;32.80;78.10;;;;;;1842722;77;21088;-85
2022/06/20 12:51:13;;;;;;;9.05;4.70;;;32.80;77.10;;;;;;1814874;76;21147;-83
2022/06/20 12:53:46;;;;;;;8.68;4.12;;;32.70;76.70;;;;;;1827747;77;21165;-84
2022/06/20 12:56:21;;;;;;;9.83;4.17;;;32.70;75.30;;;;;;1828733;77;21243;-83
2022/06/20 12:58:54;;;;;;;7.58;3.50;;;32.70;74.60;;;;;;1813885;77;21099;-83
2022/06/20 13:01:27;;;;;;;8.98;3.80;;;32.70;74.10;;;;;;1831907;77;21182;-84
2022/06/20 13:04:00;;;;;;;7.78;3.47;;;32.70;74.90;;;;;;1882550;74;21134;-84
2022/06/20 13:06:34;;;;;;;5.92;3.55;;;32.70;74.20;;;;;;1887663;74;21149;-84
2022/06/20 13:09:07;;;;;;;5.72;3.08;;;32.60;73.10;;;;;;1888677;74;21165;-85
2022/06/20 13:11:40;;;;;;;5.97;3.20;;;32.60;72.70;;;;;;1890691;74;21208;-83
2022/06/20 13:14:14;;;;;;;6.65;3.52;;;32.50;72.60;;;;;;1894361;74;21254;-83
2022/06/20 13:16:47;;;;;;;9.98;3.00;;;32.50;73.90;;;;;;1885803;74;21164;-83
2022/06/20 13:19:20;;;;;;;8.18;3.55;;;32.50;73.40;;;;;;1857294;75;21204;-83
2022/06/20 13:21:54;;;;;;;8.88;3.42;;;32.50;73.60;;;;;;1880636;74;21512;-82
2022/06/20 13:24:27;;;;;;;6.37;3.80;;;32.40;74.00;;;;;;1883384;75;21186;-84
2022/06/20 13:27:01;;;;;;;5.20;3.15;;;32.40;73.20;;;;;;1868621;74;21551;-83
2022/06/20 13:29:34;;;;;;;6.80;3.30;;;32.40;73.60;;;;;;1872882;74;22113;-84
2022/06/20 13:32:07;;;;;;;7.83;3.35;;;32.40;74.10;;;;;;1870344;74;21569;-85
2022/06/20 13:34:41;;;;;;;4.28;2.90;;;32.30;73.60;;;;;;1869507;76;21154;-86
2022/06/20 13:37:14;;;;;;;6.75;3.62;;;32.40;73.70;;;;;;1869857;75;21184;-86
2022/06/20 13:39:48;;;;;;;6.17;3.50;;;32.30;73.30;;;;;;1872889;75;21211;-83
2022/06/20 13:42:44;;;;;;;7.67;3.27;;;32.30;74.40;;;;;;1880659;74;21066;-86